createdAt,value
2022-08-12T00:04:33.687Z,15.00
2022-08-12T00:09:55.166Z,14.88
2022-08-12T00:15:17.775Z,14.83
2022-08-12T00:20:39.007Z,14.93
2022-08-12T00:26:23.747Z,15.07
2022-08-12T00:31:44.776Z,15.28
2022-08-12T00:37:13.044Z,15.27
2022-08-12T00:42:19.933Z,15.28
2022-08-12T00:47:26.092Z,15.33
2022-08-12T00:52:29.970Z,15.20
2022-08-12T00:57:36.754Z,15.27
2022-08-12T01:02:46.512Z,15.07
2022-08-12T01:08:08.750Z,15.27
2022-08-12T01:13:19.881Z,14.38
2022-08-12T01:18:28.841Z,14.37
2022-08-12T01:23:57.675Z,13.75
2022-08-12T01:29:04.219Z,14.78
2022-08-12T01:34:28.615Z,13.34
2022-08-12T01:39:35.540Z,14.04
2022-08-12T01:44:41.678Z,14.56
2022-08-12T01:50:05.330Z,14.61
2022-08-12T01:55:10.459Z,13.94
2022-08-12T02:00:19.168Z,14.09
2022-08-12T02:05:56.045Z,13.99
2022-08-12T02:11:18.930Z,14.69
2022-08-12T02:16:49.561Z,14.56
2022-08-12T02:22:04.917Z,14.16
2022-08-12T02:27:10.632Z,13.83
2022-08-12T02:32:17.630Z,13.40
2022-08-12T02:37:22.465Z,12.22
2022-08-12T02:42:30.194Z,12.79
2022-08-12T02:47:59.708Z,13.34
2022-08-12T02:53:05.284Z,13.88
2022-08-12T02:58:12.323Z,14.14
2022-08-12T03:03:22.655Z,14.40
2022-08-12T03:08:33.117Z,14.23
2022-08-12T03:13:43.022Z,14.50
2022-08-12T03:18:49.970Z,14.61
2022-08-12T03:23:55.730Z,14.86
2022-08-12T03:29:01.436Z,14.91
2022-08-12T03:34:08.627Z,14.96
2022-08-12T03:39:35.206Z,15.02
2022-08-12T03:45:00.670Z,15.07
2022-08-12T03:50:25.727Z,15.10
2022-08-12T03:55:49.612Z,14.46
2022-08-12T04:00:56.824Z,14.93
2022-08-12T04:06:03.426Z,15.12
2022-08-12T04:11:24.933Z,15.22
2022-08-12T04:16:29.962Z,15.27
2022-08-12T04:21:36.326Z,15.27
2022-08-12T04:26:45.880Z,15.47
2022-08-12T04:31:50.820Z,15.41
2022-08-12T04:36:55.864Z,15.78
2022-08-12T04:42:01.774Z,16.44
2022-08-12T04:47:12.584Z,16.23
2022-08-12T04:52:19.726Z,15.06
2022-08-12T04:57:23.370Z,15.97
2022-08-12T05:02:27.328Z,16.20
2022-08-12T05:07:34.304Z,16.45
2022-08-12T05:12:58.588Z,17.01
2022-08-12T05:18:16.791Z,17.49
2022-08-12T05:23:36.343Z,17.62
2022-08-12T05:28:44.044Z,17.12
2022-08-12T05:33:51.187Z,16.79
2022-08-12T05:39:00.317Z,17.18
2022-08-12T05:44:06.558Z,17.52
2022-08-12T05:49:12.714Z,17.59
2022-08-12T05:54:35.335Z,17.24
2022-08-12T05:59:44.374Z,16.99
2022-08-12T06:04:48.358Z,16.33
2022-08-12T06:09:53.378Z,17.54
2022-08-12T06:15:00.235Z,17.50
2022-08-12T06:20:26.481Z,18.02
2022-08-12T06:25:30.626Z,17.54
2022-08-12T06:30:39.174Z,18.50
2022-08-12T06:35:49.211Z,18.14
2022-08-12T06:41:14.706Z,19.07
2022-08-12T06:46:19.640Z,18.10
2022-08-12T06:51:24.726Z,17.85
2022-08-12T06:57:01.917Z,19.18
2022-08-12T07:01:55.146Z,19.14
2022-08-12T07:06:59.215Z,19.98
2022-08-12T07:12:06.805Z,20.30
2022-08-12T07:17:12.975Z,19.82
2022-08-12T07:22:20.625Z,20.41
2022-08-12T07:27:27.579Z,20.55
2022-08-12T07:32:31.662Z,19.86
2022-08-12T07:37:41.647Z,19.96
2022-08-12T07:42:47.110Z,20.53
2022-08-12T07:47:52.509Z,21.04
2022-08-12T07:52:56.491Z,21.97
2022-08-12T07:58:02.803Z,22.10
2022-08-12T08:03:08.704Z,20.58
2022-08-12T08:08:19.843Z,20.70
2022-08-12T08:13:27.720Z,21.27
2022-08-12T08:18:33.232Z,22.34
2022-08-12T08:23:56.147Z,22.14
2022-08-12T08:29:02.602Z,22.75
2022-08-12T08:34:33.641Z,22.51
2022-08-12T08:39:31.983Z,21.62
2022-08-12T08:44:39.675Z,21.59
2022-08-12T08:49:43.438Z,22.49
2022-08-12T08:54:47.732Z,22.10
2022-08-12T08:59:52.751Z,21.82
2022-08-12T09:10:31.126Z,22.53
2022-08-12T09:15:39.117Z,22.93
2022-08-12T09:20:50.734Z,22.82
2022-08-12T09:25:55.038Z,22.72
2022-08-12T09:31:01.158Z,22.88
2022-08-12T09:36:05.787Z,22.98
2022-08-12T09:42:33.815Z,22.82
2022-08-12T09:46:35.020Z,23.14
2022-08-12T09:51:43.386Z,23.37
2022-08-12T09:57:01.579Z,24.20
2022-08-12T10:02:45.496Z,24.20
2022-08-12T10:07:40.434Z,24.68
2022-08-12T10:13:12.584Z,22.56
2022-08-12T10:18:19.636Z,23.00
2022-08-12T10:23:39.399Z,24.16
2022-08-12T10:30:37.060Z,23.38
2022-08-12T10:34:36.610Z,24.71
2022-08-12T10:40:01.576Z,23.78
2022-08-12T10:45:09.722Z,23.77
2022-08-12T10:50:35.855Z,25.02
2022-08-12T10:55:46.224Z,25.46
2022-08-12T11:01:25.586Z,25.45
2022-08-12T11:07:06.906Z,25.60
2022-08-12T11:12:35.593Z,25.28
2022-08-12T11:17:34.712Z,24.33
2022-08-12T11:22:38.968Z,22.95
2022-08-12T11:27:42.952Z,24.36
2022-08-12T11:32:47.114Z,25.55
2022-08-12T11:37:59.069Z,28.93
2022-08-12T11:43:19.969Z,29.79
2022-08-12T11:48:27.006Z,29.26
2022-08-12T11:53:58.282Z,26.22
2022-08-12T12:02:01.175Z,25.23
2022-08-12T12:04:28.803Z,25.79
2022-08-12T12:09:53.615Z,25.45
2022-08-12T12:15:03.167Z,25.34
2022-08-12T12:20:13.046Z,25.48
2022-08-12T12:25:19.840Z,25.42
2022-08-12T12:30:30.168Z,25.39
2022-08-12T12:36:17.042Z,25.53
2022-08-12T12:41:16.228Z,25.13
2022-08-12T12:46:20.966Z,24.27
2022-08-12T12:51:48.567Z,23.89
2022-08-12T12:56:54.552Z,24.35
2022-08-12T13:02:08.282Z,25.24
2022-08-12T13:07:12.375Z,25.82
2022-08-12T13:12:18.027Z,25.80
2022-08-12T13:17:24.497Z,26.36
2022-08-12T13:22:49.041Z,26.96
2022-08-12T13:27:58.319Z,25.96
2022-08-12T13:33:03.512Z,25.24
2022-08-12T13:38:10.381Z,25.41
2022-08-12T13:43:41.316Z,28.26
2022-08-12T13:48:45.321Z,28.90
2022-08-12T13:53:58.395Z,27.46
2022-08-12T13:59:08.005Z,27.26
2022-08-12T14:04:12.654Z,27.15
2022-08-12T14:09:18.278Z,27.30
2022-08-12T14:14:25.244Z,29.05
2022-08-12T14:19:33.091Z,30.23
2022-08-12T14:24:42.517Z,30.15
2022-08-12T14:30:04.444Z,27.51
2022-08-12T14:35:12.684Z,26.79
2022-08-12T14:40:18.227Z,27.99
2022-08-12T14:45:24.754Z,30.10
2022-08-12T14:52:07.892Z,30.91
2022-08-12T15:01:42.550Z,28.84
2022-08-12T15:06:52.490Z,26.21
2022-08-12T15:12:03.074Z,24.96
2022-08-12T15:17:09.362Z,25.86
2022-08-12T15:22:35.901Z,27.06
2022-08-12T15:28:05.127Z,27.43
2022-08-12T15:33:12.825Z,28.04
2022-08-12T15:38:21.250Z,28.10
2022-08-12T15:43:35.538Z,29.00
2022-08-12T15:48:51.686Z,28.89
2022-08-12T15:54:33.667Z,28.19
2022-08-12T15:59:51.434Z,27.35
2022-08-12T16:04:56.543Z,26.09
2022-08-12T16:10:06.664Z,25.48
2022-08-12T16:15:13.509Z,25.64
2022-08-12T16:20:22.261Z,25.80
2022-08-12T16:26:03.234Z,25.57
2022-08-12T16:31:03.095Z,25.94
2022-08-12T16:36:18.780Z,25.99
2022-08-12T16:41:23.694Z,25.71
2022-08-12T16:46:33.344Z,24.53
2022-08-12T16:51:41.751Z,24.19
2022-08-12T16:56:57.358Z,23.58
2022-08-12T17:02:02.564Z,23.26
2022-08-12T17:07:15.531Z,23.09
2022-08-12T17:12:20.242Z,22.80
2022-08-12T17:17:26.358Z,22.58
2022-08-12T17:22:46.641Z,22.28
2022-08-12T17:27:56.989Z,22.21
2022-08-12T17:33:02.859Z,22.47
2022-08-12T17:38:13.490Z,22.15
2022-08-12T17:43:57.757Z,21.82
2022-08-12T17:48:54.852Z,21.77
2022-08-12T17:54:12.499Z,21.34
2022-08-12T17:59:19.311Z,21.44
2022-08-12T18:05:03.175Z,21.58
2022-08-12T18:10:09.375Z,21.71
2022-08-12T18:15:26.671Z,21.98
2022-08-12T18:20:45.050Z,21.82
2022-08-12T18:26:13.862Z,21.78
2022-08-12T18:31:23.938Z,21.14
2022-08-12T18:36:31.693Z,21.06
2022-08-12T18:41:37.532Z,21.27
2022-08-12T18:46:55.263Z,21.31
2022-08-12T18:52:04.392Z,21.05
2022-08-12T18:57:16.776Z,20.76
2022-08-12T19:02:40.396Z,20.77
2022-08-12T19:07:59.974Z,20.85
2022-08-12T19:13:25.216Z,20.86
2022-08-12T19:18:36.968Z,20.70
2022-08-12T19:23:43.811Z,20.86
2022-08-12T19:28:49.428Z,20.96
2022-08-12T19:34:25.449Z,21.06
2022-08-12T19:39:23.076Z,21.42
2022-08-12T19:44:30.799Z,21.53
2022-08-12T19:49:36.049Z,21.55
2022-08-12T19:54:44.065Z,21.59
2022-08-12T20:00:03.462Z,21.90
2022-08-12T20:06:03.146Z,21.69
2022-08-12T20:10:36.320Z,21.45
2022-08-12T20:15:45.115Z,21.03
2022-08-12T20:20:49.284Z,21.31
2022-08-12T20:26:04.063Z,20.91
2022-08-12T20:31:17.629Z,21.07
2022-08-12T20:36:41.151Z,21.40
2022-08-12T20:41:50.969Z,20.88
2022-08-12T20:46:58.358Z,21.08
2022-08-12T20:52:02.635Z,20.95
2022-08-12T20:57:10.340Z,20.97
2022-08-12T21:02:15.638Z,20.57
2022-08-12T21:07:20.382Z,20.50
2022-08-12T21:12:34.058Z,20.72
2022-08-12T21:18:09.349Z,20.24
2022-08-12T21:23:05.966Z,19.81
2022-08-12T21:28:10.007Z,19.07
2022-08-12T21:33:18.453Z,19.56
2022-08-12T21:38:34.405Z,19.31
2022-08-12T21:43:44.433Z,19.64
2022-08-12T21:48:53.272Z,19.54
2022-08-12T21:54:07.141Z,19.69
2022-08-12T21:59:14.943Z,19.58
2022-08-12T22:04:38.427Z,20.02
2022-08-12T22:09:43.419Z,19.85
2022-08-12T22:14:47.596Z,19.52
2022-08-12T22:19:52.726Z,19.58
2022-08-12T22:24:58.587Z,19.93
2022-08-12T22:30:20.147Z,20.18
2022-08-12T22:35:56.624Z,19.99
2022-08-12T22:41:00.829Z,20.41
2022-08-12T22:46:23.224Z,19.97
2022-08-12T22:52:00.352Z,19.58
2022-08-12T22:56:59.123Z,19.66
2022-08-12T23:02:07.719Z,19.53
2022-08-12T23:07:16.512Z,19.36
2022-08-12T23:12:34.077Z,19.26
2022-08-12T23:17:41.814Z,19.73
2022-08-12T23:23:02.624Z,19.96
2022-08-12T23:28:30.071Z,19.50
2022-08-12T23:34:01.494Z,19.79
2022-08-12T23:39:02.050Z,20.01
2022-08-12T23:44:07.293Z,19.59
2022-08-12T23:49:55.815Z,19.89
2022-08-12T23:54:44.286Z,20.32
2022-08-12T23:59:55.383Z,20.47
